createdAt,value
2023-03-05T00:01:46.260Z,64.45
2023-03-05T00:04:15.960Z,65.17
2023-03-05T00:06:46.542Z,65.00
2023-03-05T00:09:16.419Z,64.81
2023-03-05T00:11:45.663Z,65.18
2023-03-05T00:14:15.240Z,65.59
2023-03-05T00:16:43.996Z,65.65
2023-03-05T00:19:13.203Z,65.20
2023-03-05T00:21:42.822Z,65.76
2023-03-05T00:24:19.413Z,66.00
2023-03-05T00:26:47.530Z,65.98
2023-03-05T00:29:18.800Z,66.10
2023-03-05T00:31:47.020Z,66.40
2023-03-05T00:34:17.735Z,66.68
2023-03-05T00:36:48.566Z,67.18
2023-03-05T00:39:19.179Z,67.12
2023-03-05T00:41:49.955Z,66.88
2023-03-05T00:44:18.669Z,67.34
2023-03-05T00:46:46.963Z,67.03
2023-03-05T00:49:15.460Z,67.14
2023-03-05T00:51:43.490Z,68.67
2023-03-05T00:54:11.695Z,68.31
2023-03-05T00:56:39.639Z,68.84
2023-03-05T00:59:08.003Z,68.88
2023-03-05T01:01:37.457Z,69.15
2023-03-05T01:04:05.825Z,69.65
2023-03-05T01:06:33.789Z,68.80
2023-03-05T01:09:02.402Z,69.66
2023-03-05T01:11:30.263Z,69.53
2023-03-05T01:13:58.687Z,70.10
2023-03-05T01:16:26.727Z,71.06
2023-03-05T01:18:55.084Z,70.63
2023-03-05T01:21:23.412Z,70.59
2023-03-05T01:23:51.629Z,70.84
2023-03-05T01:26:19.522Z,70.50
2023-03-05T01:28:47.882Z,71.36
2023-03-05T01:31:15.854Z,71.53
2023-03-05T01:33:44.360Z,71.60
2023-03-05T01:36:17.182Z,71.27
2023-03-05T01:38:47.839Z,71.69
2023-03-05T01:41:17.984Z,71.80
2023-03-05T01:43:48.064Z,71.15
2023-03-05T01:46:37.698Z,71.11
2023-03-05T01:49:12.145Z,71.26
2023-03-05T01:51:50.873Z,70.93
2023-03-05T01:54:21.413Z,71.44
2023-03-05T01:56:53.703Z,70.99
2023-03-05T01:59:23.982Z,71.82
2023-03-05T02:01:57.124Z,71.67
2023-03-05T02:04:32.963Z,72.49
2023-03-05T02:07:02.200Z,71.83
2023-03-05T02:09:30.382Z,71.92
2023-03-05T02:11:58.991Z,72.21
2023-03-05T02:14:28.223Z,73.04
2023-03-05T02:16:56.230Z,72.78
2023-03-05T02:19:24.656Z,73.08
2023-03-05T02:21:53.428Z,73.05
2023-03-05T02:24:37.850Z,72.97
2023-03-05T02:27:06.562Z,72.55
2023-03-05T02:29:39.206Z,72.11
2023-03-05T02:32:07.532Z,73.39
2023-03-05T02:34:37.014Z,72.82
2023-03-05T02:37:09.376Z,72.33
2023-03-05T02:39:39.980Z,73.19
2023-03-05T02:42:08.834Z,72.87
2023-03-05T02:44:38.252Z,72.84
2023-03-05T02:47:07.123Z,73.27
2023-03-05T02:49:37.342Z,73.48
2023-03-05T02:52:07.197Z,73.66
2023-03-05T02:54:35.578Z,73.71
2023-03-05T02:57:04.524Z,73.50
2023-03-05T02:59:32.971Z,73.59
2023-03-05T03:02:00.926Z,73.32
2023-03-05T03:04:29.296Z,73.82
2023-03-05T03:06:57.232Z,74.29
2023-03-05T03:09:27.015Z,75.29
2023-03-05T03:11:56.504Z,74.04
2023-03-05T03:14:24.846Z,73.55
2023-03-05T03:16:52.742Z,73.62
2023-03-05T03:19:22.400Z,74.30
2023-03-05T03:21:50.804Z,74.25
2023-03-05T03:24:19.018Z,74.78
2023-03-05T03:26:47.005Z,74.61
2023-03-05T03:29:15.412Z,74.51
2023-03-05T03:31:45.878Z,74.78
2023-03-05T03:34:16.135Z,74.36
2023-03-05T03:36:45.369Z,74.84
2023-03-05T03:39:15.326Z,73.81
2023-03-05T03:41:51.660Z,74.81
2023-03-05T03:44:21.839Z,75.10
2023-03-05T03:46:51.111Z,74.40
2023-03-05T03:49:24.633Z,74.76
2023-03-05T03:51:55.245Z,74.29
2023-03-05T03:54:26.083Z,74.65
2023-03-05T03:56:54.259Z,74.63
2023-03-05T03:59:23.693Z,74.44
2023-03-05T04:01:52.063Z,74.86
2023-03-05T04:04:21.102Z,74.41
2023-03-05T04:06:48.963Z,75.33
2023-03-05T04:09:17.444Z,75.27
2023-03-05T04:11:46.370Z,75.91
2023-03-05T04:14:14.646Z,75.88
2023-03-05T04:16:42.767Z,75.53
2023-03-05T04:19:11.080Z,75.16
2023-03-05T04:21:39.049Z,74.56
2023-03-05T04:24:09.705Z,75.43
2023-03-05T04:26:37.620Z,75.26
2023-03-05T04:29:05.828Z,75.66
2023-03-05T04:31:33.830Z,76.21
2023-03-05T04:34:02.179Z,76.09
2023-03-05T04:36:30.098Z,76.56
2023-03-05T04:39:05.869Z,76.19
2023-03-05T04:41:34.582Z,76.18
2023-03-05T04:44:02.832Z,76.69
2023-03-05T04:46:31.797Z,76.76
2023-03-05T04:49:00.573Z,76.41
2023-03-05T04:51:28.730Z,76.26
2023-03-05T04:53:58.067Z,76.27
2023-03-05T04:56:26.086Z,76.37
2023-03-05T04:58:54.367Z,76.48
2023-03-05T05:01:22.432Z,76.83
2023-03-05T05:03:51.771Z,76.88
2023-03-05T05:06:19.631Z,76.41
2023-03-05T05:08:47.934Z,76.83
2023-03-05T05:11:16.366Z,77.72
2023-03-05T05:13:44.683Z,78.19
2023-03-05T05:16:13.215Z,77.93
2023-03-05T05:18:41.520Z,78.74
2023-03-05T05:21:11.459Z,77.87
2023-03-05T05:23:40.374Z,77.88
2023-03-05T05:26:09.199Z,78.85
2023-03-05T05:28:38.702Z,76.89
2023-03-05T05:31:12.409Z,76.48
2023-03-05T05:33:41.612Z,76.11
2023-03-05T05:36:13.155Z,75.56
2023-03-05T05:38:42.866Z,73.89
2023-03-05T05:41:14.542Z,74.91
2023-03-05T05:43:43.358Z,75.18
2023-03-05T05:46:15.599Z,76.82
2023-03-05T05:48:45.860Z,75.71
2023-03-05T05:51:24.121Z,76.12
2023-03-05T05:53:52.823Z,75.34
2023-03-05T05:56:21.580Z,76.98
2023-03-05T05:58:50.602Z,76.73
2023-03-05T06:01:21.730Z,75.48
2023-03-05T06:03:50.642Z,75.72
2023-03-05T06:06:21.056Z,74.91
2023-03-05T06:08:50.202Z,75.22
2023-03-05T06:11:19.499Z,74.59
2023-03-05T06:13:49.431Z,74.59
2023-03-05T06:16:21.365Z,73.79
2023-03-05T06:18:55.083Z,72.99
2023-03-05T06:21:24.122Z,72.86
2023-03-05T06:23:53.040Z,73.13
2023-03-05T06:26:22.591Z,72.89
2023-03-05T06:28:54.291Z,72.00
2023-03-05T06:31:31.880Z,72.81
2023-03-05T06:34:03.119Z,72.82
2023-03-05T06:36:31.756Z,74.01
2023-03-05T06:39:01.268Z,72.57
2023-03-05T06:41:31.271Z,72.86
2023-03-05T06:44:02.571Z,71.43
2023-03-05T06:46:34.110Z,73.08
2023-03-05T06:49:04.274Z,74.67
2023-03-05T06:51:35.272Z,74.74
2023-03-05T06:54:08.146Z,75.17
2023-03-05T06:56:38.076Z,74.51
2023-03-05T06:59:07.494Z,75.85
2023-03-05T07:01:37.289Z,74.91
2023-03-05T07:04:07.505Z,75.18
2023-03-05T07:06:40.034Z,75.32
2023-03-05T07:09:11.136Z,75.61
2023-03-05T07:11:39.139Z,75.96
2023-03-05T07:14:07.586Z,75.73
2023-03-05T07:16:35.837Z,75.55
2023-03-05T07:19:06.854Z,75.90
2023-03-05T07:21:39.133Z,75.05
2023-03-05T07:24:09.281Z,74.63
2023-03-05T07:26:37.301Z,75.49
2023-03-05T07:29:05.770Z,75.40
2023-03-05T07:31:34.891Z,75.96
2023-03-05T07:34:04.118Z,75.25
2023-03-05T07:36:32.575Z,75.95
2023-03-05T07:39:01.531Z,76.73
2023-03-05T07:41:29.573Z,76.50
2023-03-05T07:43:57.955Z,76.38
2023-03-05T07:46:29.793Z,76.20
2023-03-05T07:49:00.305Z,75.74
2023-03-05T07:51:28.942Z,75.64
2023-03-05T07:53:59.082Z,75.15
2023-03-05T07:56:32.792Z,74.56
2023-03-05T07:59:08.317Z,72.82
2023-03-05T08:01:37.257Z,73.00
2023-03-05T08:04:07.296Z,75.00
2023-03-05T08:06:36.788Z,74.49
2023-03-05T08:09:05.454Z,74.59
2023-03-05T08:11:33.321Z,73.72
2023-03-05T08:14:01.699Z,73.92
2023-03-05T08:16:29.875Z,73.84
2023-03-05T08:19:00.120Z,74.58
2023-03-05T08:21:30.617Z,74.30
2023-03-05T08:23:59.220Z,73.31
2023-03-05T08:26:29.525Z,73.91
2023-03-05T08:28:58.762Z,74.68
2023-03-05T08:31:28.156Z,73.62
2023-03-05T08:33:58.340Z,73.46
2023-03-05T08:36:27.011Z,73.28
2023-03-05T08:38:56.312Z,73.74
2023-03-05T08:41:24.223Z,73.62
2023-03-05T08:43:52.553Z,73.39
2023-03-05T08:46:20.705Z,73.73
2023-03-05T08:48:49.188Z,74.61
2023-03-05T08:51:20.911Z,74.77
2023-03-05T08:53:49.243Z,74.77
2023-03-05T08:56:17.148Z,75.06
2023-03-05T08:58:46.463Z,75.12
2023-03-05T09:01:15.439Z,76.06
2023-03-05T09:03:43.858Z,76.78
2023-03-05T09:06:13.587Z,75.14
2023-03-05T09:08:42.192Z,73.24
2023-03-05T09:11:12.973Z,73.30
2023-03-05T09:13:41.828Z,74.57
2023-03-05T09:16:15.936Z,74.58
2023-03-05T09:18:44.900Z,74.39
2023-03-05T09:21:17.103Z,74.85
2023-03-05T09:23:47.549Z,73.75
2023-03-05T09:26:19.566Z,72.24
2023-03-05T09:28:48.617Z,72.52
2023-03-05T09:31:16.748Z,72.29
2023-03-05T09:33:45.565Z,73.92
2023-03-05T09:36:28.922Z,72.39
2023-03-05T09:38:58.773Z,73.85
2023-03-05T09:41:40.518Z,74.34
2023-03-05T09:44:33.104Z,74.71
2023-03-05T09:47:24.263Z,74.79
2023-03-05T09:50:04.347Z,73.83
2023-03-05T09:52:35.120Z,74.91
2023-03-05T09:55:04.992Z,75.79
2023-03-05T09:57:42.454Z,74.69
2023-03-05T10:00:57.831Z,74.94
2023-03-05T10:03:31.257Z,75.14
2023-03-05T10:06:07.471Z,75.20
2023-03-05T10:09:13.082Z,75.09
2023-03-05T10:11:44.424Z,75.14
2023-03-05T10:14:34.765Z,74.58
2023-03-05T10:17:08.718Z,73.80
2023-03-05T10:20:01.944Z,72.15
2023-03-05T10:22:38.402Z,72.10
2023-03-05T10:25:24.584Z,73.22
2023-03-05T10:27:59.763Z,73.44
2023-03-05T10:30:50.893Z,71.87
2023-03-05T10:33:38.018Z,71.98
2023-03-05T10:36:47.737Z,71.78
2023-03-05T10:39:37.568Z,71.15
2023-03-05T10:42:33.432Z,70.17
2023-03-05T10:45:23.777Z,70.08
2023-03-05T10:47:57.933Z,69.69
2023-03-05T10:50:29.623Z,72.15
2023-03-05T10:53:00.664Z,72.38
2023-03-05T10:55:29.436Z,71.76
2023-03-05T10:57:58.089Z,71.25
2023-03-05T11:00:29.161Z,71.22
2023-03-05T11:03:10.992Z,70.52
2023-03-05T11:05:39.449Z,70.66
2023-03-05T11:08:33.661Z,69.57
2023-03-05T11:11:17.394Z,68.00
2023-03-05T11:14:02.670Z,69.80
2023-03-05T11:16:34.041Z,69.21
2023-03-05T11:19:20.177Z,68.97
2023-03-05T11:22:07.663Z,69.89
2023-03-05T11:24:35.737Z,70.45
2023-03-05T11:27:32.325Z,67.83
2023-03-05T11:30:02.116Z,67.63
2023-03-05T11:32:32.390Z,66.99
2023-03-05T11:35:01.824Z,66.78
2023-03-05T11:37:33.334Z,66.39
2023-03-05T11:40:23.905Z,65.99
2023-03-05T11:42:58.953Z,65.37
2023-03-05T11:45:29.764Z,64.20
2023-03-05T11:48:18.944Z,63.48
2023-03-05T11:50:53.739Z,64.52
2023-03-05T11:53:29.559Z,64.46
2023-03-05T11:56:02.905Z,64.61
2023-03-05T11:58:34.039Z,64.43
2023-03-05T12:01:04.289Z,65.03
2023-03-05T12:03:39.076Z,64.21
2023-03-05T12:06:35.310Z,65.03
2023-03-05T12:09:13.048Z,63.32
2023-03-05T12:11:42.245Z,62.91
2023-03-05T12:14:15.420Z,62.47
2023-03-05T12:16:58.633Z,63.39
2023-03-05T12:19:57.939Z,63.75
2023-03-05T12:22:34.392Z,62.72
2023-03-05T12:25:24.205Z,62.61
2023-03-05T12:27:53.494Z,63.08
2023-03-05T12:30:36.492Z,64.08
2023-03-05T12:33:37.946Z,65.63
2023-03-05T12:36:18.052Z,63.41
2023-03-05T12:38:52.728Z,62.33
2023-03-05T12:41:32.987Z,62.03
2023-03-05T12:44:07.641Z,62.94
2023-03-05T12:46:42.215Z,62.66
2023-03-05T12:49:40.349Z,63.63
2023-03-05T12:52:25.021Z,63.37
2023-03-05T12:55:20.583Z,62.79
2023-03-05T12:57:57.546Z,62.92
2023-03-05T13:00:38.085Z,64.05
2023-03-05T13:03:14.448Z,63.01
2023-03-05T13:05:56.920Z,62.51
2023-03-05T13:08:35.848Z,62.75
2023-03-05T13:11:09.147Z,62.94
2023-03-05T13:13:42.779Z,62.97
2023-03-05T13:16:21.042Z,62.94
2023-03-05T13:18:51.129Z,62.33
2023-03-05T13:21:26.225Z,61.78
2023-03-05T13:23:59.347Z,62.40
2023-03-05T13:26:38.782Z,62.05
2023-03-05T13:29:11.661Z,61.42
2023-03-05T13:31:59.190Z,62.59
2023-03-05T13:34:46.146Z,62.28
2023-03-05T13:37:20.752Z,62.46
2023-03-05T13:40:11.432Z,62.51
2023-03-05T13:42:42.040Z,62.22
2023-03-05T13:45:25.342Z,63.41
2023-03-05T13:48:06.149Z,62.85
2023-03-05T13:50:40.265Z,63.10
2023-03-05T13:53:15.793Z,63.22
2023-03-05T13:55:47.228Z,62.90
2023-03-05T13:58:49.615Z,62.36
2023-03-05T14:01:42.876Z,63.35
2023-03-05T14:04:14.633Z,64.44
2023-03-05T14:06:50.520Z,64.65
2023-03-05T14:09:24.070Z,64.03
2023-03-05T14:11:58.324Z,64.25
2023-03-05T14:14:27.646Z,64.17
2023-03-05T14:16:55.728Z,63.27
2023-03-05T14:19:39.959Z,62.48
2023-03-05T14:22:30.191Z,62.03
2023-03-05T14:24:58.805Z,63.15
2023-03-05T14:27:27.112Z,63.61
2023-03-05T14:29:56.005Z,63.45
2023-03-05T14:32:32.208Z,65.07
2023-03-05T14:35:05.282Z,66.16
2023-03-05T14:37:37.613Z,66.06
2023-03-05T14:40:08.166Z,65.78
2023-03-05T14:42:39.268Z,65.63
2023-03-05T14:45:15.987Z,66.02
2023-03-05T14:47:44.787Z,66.79
2023-03-05T14:50:23.049Z,67.34
2023-03-05T14:52:55.220Z,67.88
2023-03-05T14:55:32.061Z,68.07
2023-03-05T14:58:15.652Z,67.58
2023-03-05T15:00:45.409Z,67.18
2023-03-05T15:03:15.981Z,66.94
2023-03-05T15:05:49.079Z,66.40
2023-03-05T15:08:29.954Z,66.14
2023-03-05T15:11:00.003Z,66.82
2023-03-05T15:13:28.403Z,66.23
2023-03-05T15:15:58.232Z,66.30
2023-03-05T15:18:29.504Z,66.15
2023-03-05T15:20:58.322Z,66.60
2023-03-05T15:23:35.643Z,67.04
2023-03-05T15:26:07.893Z,66.49
2023-03-05T15:28:37.741Z,66.61
2023-03-05T15:31:08.195Z,66.80
2023-03-05T15:33:36.752Z,66.66
2023-03-05T15:36:06.232Z,67.29
2023-03-05T15:38:34.131Z,67.58
2023-03-05T15:41:05.879Z,67.17
2023-03-05T15:43:33.980Z,67.29
2023-03-05T15:46:02.530Z,66.02
2023-03-05T15:48:30.450Z,66.00
2023-03-05T15:50:59.831Z,66.32
2023-03-05T15:53:28.037Z,66.09
2023-03-05T15:55:56.382Z,65.66
2023-03-05T15:58:24.290Z,65.95
2023-03-05T16:00:52.675Z,65.63
2023-03-05T16:03:20.646Z,66.10
2023-03-05T16:05:50.014Z,66.09
2023-03-05T16:08:20.011Z,65.74
2023-03-05T16:10:48.492Z,65.88
2023-03-05T16:13:19.247Z,65.82
2023-03-05T16:15:53.488Z,66.71
2023-03-05T16:18:22.134Z,65.94
2023-03-05T16:20:50.990Z,66.88
2023-03-05T16:23:22.700Z,66.44
2023-03-05T16:25:51.283Z,67.12
2023-03-05T16:28:19.151Z,67.19
2023-03-05T16:30:58.203Z,67.33
2023-03-05T16:33:28.265Z,67.81
2023-03-05T16:36:21.619Z,68.66
2023-03-05T16:38:53.214Z,68.47
2023-03-05T16:41:27.066Z,67.21
2023-03-05T16:43:59.539Z,66.35
2023-03-05T16:46:33.259Z,67.50
2023-03-05T16:49:03.675Z,68.17
2023-03-05T16:51:32.166Z,68.97
2023-03-05T16:54:00.605Z,68.72
2023-03-05T16:56:30.545Z,68.21
2023-03-05T16:58:59.943Z,68.95
2023-03-05T17:01:30.833Z,69.34
2023-03-05T17:04:00.299Z,68.63
2023-03-05T17:06:32.341Z,68.92
2023-03-05T17:09:00.659Z,69.19
2023-03-05T17:11:28.974Z,69.67
2023-03-05T17:13:58.419Z,69.42
2023-03-05T17:16:26.917Z,69.47
2023-03-05T17:18:54.800Z,69.76
2023-03-05T17:21:23.273Z,69.86
2023-03-05T17:23:51.430Z,69.56
2023-03-05T17:26:20.624Z,69.65
2023-03-05T17:28:49.251Z,69.79
2023-03-05T17:31:18.306Z,70.13
2023-03-05T17:33:46.360Z,69.89
2023-03-05T17:36:18.663Z,69.58
2023-03-05T17:38:50.424Z,70.18
2023-03-05T17:41:19.915Z,69.62
2023-03-05T17:43:50.555Z,70.38
2023-03-05T17:46:18.859Z,69.89
2023-03-05T17:48:47.043Z,70.36
2023-03-05T17:51:16.971Z,70.71
2023-03-05T17:53:45.165Z,70.80
2023-03-05T17:56:22.356Z,70.47
2023-03-05T17:58:51.272Z,70.76
2023-03-05T18:01:33.552Z,70.41
2023-03-05T18:04:02.414Z,70.45
2023-03-05T18:06:31.936Z,70.39
2023-03-05T18:08:59.910Z,70.62
2023-03-05T18:11:30.849Z,70.23
2023-03-05T18:14:00.168Z,70.84
2023-03-05T18:16:28.843Z,70.13
2023-03-05T18:18:56.865Z,70.32
2023-03-05T18:21:28.293Z,69.91
2023-03-05T18:23:56.320Z,69.52
2023-03-05T18:26:24.830Z,70.24
2023-03-05T18:28:54.017Z,70.05
2023-03-05T18:31:24.054Z,70.08
2023-03-05T18:33:52.833Z,70.12
2023-03-05T18:36:23.653Z,69.73
2023-03-05T18:38:52.403Z,70.55
2023-03-05T18:41:27.261Z,69.90
2023-03-05T18:43:55.943Z,70.11
2023-03-05T18:46:24.278Z,70.55
2023-03-05T18:48:53.832Z,70.63
2023-03-05T18:51:22.606Z,70.78
2023-03-05T18:53:52.401Z,70.34
2023-03-05T18:56:23.585Z,69.92
2023-03-05T18:58:53.833Z,69.27
2023-03-05T19:01:23.714Z,69.42
2023-03-05T19:03:53.625Z,69.05
2023-03-05T19:06:22.530Z,68.88
2023-03-05T19:09:27.347Z,69.47
2023-03-05T19:12:14.273Z,70.06
2023-03-05T19:14:42.360Z,69.70
2023-03-05T19:17:11.374Z,69.69
2023-03-05T19:19:42.976Z,68.45
2023-03-05T19:22:12.433Z,68.25
2023-03-05T19:24:41.670Z,68.64
2023-03-05T19:27:11.873Z,68.76
2023-03-05T19:29:42.467Z,68.51
2023-03-05T19:32:14.693Z,68.84
2023-03-05T19:34:46.015Z,68.21
2023-03-05T19:37:15.498Z,68.77
2023-03-05T19:39:43.368Z,69.06
2023-03-05T19:42:12.107Z,69.37
2023-03-05T19:44:40.315Z,68.64
2023-03-05T19:47:10.676Z,68.84
2023-03-05T19:49:39.143Z,68.18
2023-03-05T19:52:07.944Z,68.31
2023-03-05T19:54:36.012Z,68.25
2023-03-05T19:57:04.345Z,69.75
2023-03-05T19:59:32.656Z,69.77
2023-03-05T20:02:01.106Z,69.01
2023-03-05T20:04:29.289Z,69.07
2023-03-05T20:06:58.204Z,69.37
2023-03-05T20:09:26.146Z,69.46
2023-03-05T20:11:57.729Z,69.40
2023-03-05T20:14:26.624Z,68.92
2023-03-05T20:16:54.839Z,68.56
2023-03-05T20:19:22.720Z,68.45
2023-03-05T20:21:50.962Z,68.23
2023-03-05T20:24:19.979Z,68.56
2023-03-05T20:26:49.353Z,69.14
2023-03-05T20:29:18.886Z,68.49
2023-03-05T20:31:50.407Z,68.70
2023-03-05T20:34:20.219Z,68.87
2023-03-05T20:36:49.444Z,68.91
2023-03-05T20:39:17.404Z,68.22
2023-03-05T20:41:45.976Z,68.30
2023-03-05T20:44:14.523Z,69.00
2023-03-05T20:47:31.030Z,69.35
2023-03-05T20:49:58.974Z,68.96
2023-03-05T20:52:27.300Z,68.50
2023-03-05T20:54:55.216Z,68.92
2023-03-05T20:57:25.187Z,68.72
2023-03-05T20:59:53.265Z,69.27
2023-03-05T21:02:22.033Z,68.54
2023-03-05T21:04:50.488Z,68.18
2023-03-05T21:07:19.110Z,68.26
2023-03-05T21:09:47.086Z,68.36
2023-03-05T21:12:15.290Z,68.04
2023-03-05T21:14:43.626Z,68.52
2023-03-05T21:17:12.490Z,68.21
2023-03-05T21:19:40.391Z,68.57
2023-03-05T21:22:09.345Z,68.34
2023-03-05T21:25:21.434Z,68.40
2023-03-05T21:28:00.040Z,68.45
2023-03-05T21:30:38.489Z,68.18
2023-03-05T21:33:12.946Z,68.43
2023-03-05T21:35:42.735Z,68.60
2023-03-05T21:38:12.757Z,68.07
2023-03-05T21:40:45.783Z,68.20
2023-03-05T21:43:16.101Z,69.07
2023-03-05T21:45:47.480Z,68.32
2023-03-05T21:48:16.756Z,67.81
2023-03-05T21:50:47.200Z,68.54
2023-03-05T21:53:17.441Z,68.91
2023-03-05T21:55:59.782Z,68.67
2023-03-05T21:58:28.007Z,68.85
2023-03-05T22:00:56.181Z,68.10
2023-03-05T22:03:24.574Z,69.40
2023-03-05T22:05:53.046Z,69.17
2023-03-05T22:08:22.759Z,68.62
2023-03-05T22:10:51.290Z,68.86
2023-03-05T22:13:20.367Z,68.69
2023-03-05T22:15:54.097Z,68.76
2023-03-05T22:18:25.411Z,68.65
2023-03-05T22:20:55.622Z,68.18
2023-03-05T22:23:26.313Z,67.86
2023-03-05T22:26:06.569Z,67.73
2023-03-05T22:28:36.778Z,68.38
2023-03-05T22:31:05.850Z,68.52
2023-03-05T22:33:35.103Z,67.97
2023-03-05T22:36:12.916Z,67.90
2023-03-05T22:38:43.199Z,68.45
2023-03-05T22:41:14.838Z,68.67
2023-03-05T22:43:43.715Z,68.45
2023-03-05T22:46:20.687Z,69.08
2023-03-05T22:48:50.115Z,69.62
2023-03-05T22:51:18.939Z,69.71
2023-03-05T22:53:47.282Z,69.51
2023-03-05T22:56:17.940Z,68.80
2023-03-05T22:58:46.556Z,68.78
2023-03-05T23:01:21.382Z,68.86
2023-03-05T23:04:50.609Z,69.24
2023-03-05T23:07:22.516Z,69.36
2023-03-05T23:10:06.187Z,68.44
2023-03-05T23:12:36.018Z,68.70
2023-03-05T23:15:09.603Z,68.35
2023-03-05T23:17:39.312Z,68.73
2023-03-05T23:20:11.658Z,68.89
2023-03-05T23:22:41.003Z,69.02
2023-03-05T23:25:10.601Z,68.81
2023-03-05T23:27:40.323Z,69.30
2023-03-05T23:30:19.996Z,70.18
2023-03-05T23:32:53.729Z,70.72
2023-03-05T23:35:25.385Z,70.73
2023-03-05T23:37:54.910Z,70.71
2023-03-05T23:40:29.217Z,70.95
2023-03-05T23:43:00.000Z,71.07
2023-03-05T23:45:31.062Z,71.43
2023-03-05T23:47:59.326Z,72.26
2023-03-05T23:50:33.488Z,72.30
2023-03-05T23:53:03.810Z,72.27
2023-03-05T23:55:43.579Z,71.97
2023-03-05T23:58:12.245Z,72.65
